createdAt,value
2019-05-07T00:01:37.218Z,100716.00
2019-05-07T00:04:03.966Z,100708.14
2019-05-07T00:06:32.574Z,100692.19
2019-05-07T00:08:57.630Z,100690.59
2019-05-07T00:11:24.522Z,100693.76
2019-05-07T00:13:52.261Z,100698.89
2019-05-07T00:16:18.224Z,100697.31
2019-05-07T00:18:44.983Z,100692.14
2019-05-07T00:21:12.601Z,100689.35
2019-05-07T00:23:38.457Z,100688.23
2019-05-07T00:26:05.194Z,100692.17
2019-05-07T00:28:32.586Z,100693.48
2019-05-07T00:30:58.678Z,100696.81
2019-05-07T00:33:25.534Z,100690.66
2019-05-07T00:35:57.332Z,100691.07
2019-05-07T00:38:24.102Z,100688.67
2019-05-07T00:40:57.149Z,100682.27
2019-05-07T00:43:26.578Z,100686.56
2019-05-07T00:45:57.261Z,100687.58
2019-05-07T00:48:23.718Z,100683.37
2019-05-07T00:50:52.754Z,100675.87
2019-05-07T00:53:18.968Z,100671.80
2019-05-07T00:55:45.706Z,100658.43
2019-05-07T00:58:13.268Z,100662.50
2019-05-07T01:00:39.170Z,100668.89
2019-05-07T01:03:06.049Z,100661.75
2019-05-07T01:05:32.793Z,100668.05
2019-05-07T01:07:59.522Z,100664.45
2019-05-07T01:10:26.262Z,100659.61
2019-05-07T01:12:53.273Z,100654.95
2019-05-07T01:15:28.837Z,100658.86
2019-05-07T01:17:46.483Z,100654.70
2019-05-07T01:20:13.234Z,100658.79
2019-05-07T01:22:42.300Z,100651.42
2019-05-07T01:25:06.790Z,100648.29
2019-05-07T01:27:33.526Z,100644.23
2019-05-07T01:30:02.557Z,100652.61
2019-05-07T01:32:33.159Z,100653.48
2019-05-07T01:35:03.275Z,100649.97
2019-05-07T01:37:29.995Z,100649.77
2019-05-07T01:39:56.733Z,100641.98
2019-05-07T01:42:23.522Z,100641.05
2019-05-07T01:44:52.672Z,100643.41
2019-05-07T01:47:16.994Z,100651.97
2019-05-07T01:49:43.734Z,100651.23
2019-05-07T01:52:10.478Z,100653.25
2019-05-07T01:54:37.261Z,100652.06
2019-05-07T01:57:03.994Z,100652.28
2019-05-07T01:59:32.148Z,100645.34
2019-05-07T02:01:59.101Z,100644.17
2019-05-07T02:04:32.737Z,100649.83
2019-05-07T02:07:04.971Z,100644.63
2019-05-07T02:09:37.552Z,100645.39
2019-05-07T02:12:10.098Z,100645.59
2019-05-07T02:14:36.878Z,100639.81
2019-05-07T02:17:03.611Z,100638.98
2019-05-07T02:19:30.761Z,100645.86
2019-05-07T02:21:57.081Z,100642.56
2019-05-07T02:24:23.806Z,100645.51
2019-05-07T02:26:52.115Z,100640.63
2019-05-07T02:29:17.315Z,100641.72
2019-05-07T02:31:44.542Z,100638.13
2019-05-07T02:34:13.783Z,100640.42
2019-05-07T02:36:37.536Z,100637.62
2019-05-07T02:39:25.073Z,100644.30
2019-05-07T02:41:54.258Z,100644.59
2019-05-07T02:44:18.576Z,100640.34
2019-05-07T02:46:52.826Z,100636.83
2019-05-07T02:49:24.030Z,100643.83
2019-05-07T02:52:04.149Z,100643.22
2019-05-07T02:54:48.208Z,100651.73
2019-05-07T02:57:16.964Z,100660.16
2019-05-07T02:59:44.065Z,100652.37
2019-05-07T03:02:08.453Z,100650.53
2019-05-07T03:04:35.200Z,100648.59
2019-05-07T03:07:03.963Z,100651.48
2019-05-07T03:09:28.669Z,100653.86
2019-05-07T03:11:55.424Z,100647.35
2019-05-07T03:14:23.360Z,100654.50
2019-05-07T03:16:49.706Z,100652.02
2019-05-07T03:19:15.629Z,100653.13
2019-05-07T03:21:48.186Z,100652.85
2019-05-07T03:24:19.457Z,100654.42
2019-05-07T03:26:46.233Z,100655.06
2019-05-07T03:29:16.926Z,100652.53
2019-05-07T03:31:56.347Z,100653.08
2019-05-07T03:34:45.657Z,100653.95
2019-05-07T03:37:07.693Z,100647.59
2019-05-07T03:39:34.395Z,100653.13
2019-05-07T03:42:03.459Z,100647.61
2019-05-07T03:44:37.503Z,100644.20
2019-05-07T03:47:09.962Z,100645.76
2019-05-07T03:49:38.034Z,100645.77
2019-05-07T03:52:04.857Z,100645.95
2019-05-07T03:54:34.057Z,100643.87
2019-05-07T03:57:04.200Z,100645.14
2019-05-07T03:59:25.021Z,100640.66
2019-05-07T04:01:53.782Z,100650.37
2019-05-07T04:04:18.505Z,100649.73
2019-05-07T04:06:45.255Z,100644.86
2019-05-07T04:09:13.283Z,100643.59
2019-05-07T04:11:38.708Z,100649.64
2019-05-07T04:14:05.438Z,100651.47
2019-05-07T04:16:35.193Z,100645.02
2019-05-07T04:19:03.907Z,100647.98
2019-05-07T04:21:28.656Z,100651.56
2019-05-07T04:24:13.462Z,100652.73
2019-05-07T04:26:42.814Z,100651.84
2019-05-07T04:29:09.343Z,100652.67
2019-05-07T04:31:38.363Z,100653.50
2019-05-07T04:34:09.071Z,100652.50
2019-05-07T04:36:39.822Z,100652.61
2019-05-07T04:39:07.119Z,100654.11
2019-05-07T04:41:33.869Z,100661.73
2019-05-07T04:44:03.421Z,100663.60
2019-05-07T04:46:27.334Z,100654.97
2019-05-07T04:48:54.060Z,100658.28
2019-05-07T04:51:25.874Z,100664.37
2019-05-07T04:53:57.253Z,100668.22
2019-05-07T04:56:24.251Z,100663.73
2019-05-07T04:58:55.236Z,100659.92
2019-05-07T05:01:23.437Z,100665.22
2019-05-07T05:03:49.232Z,100659.88
2019-05-07T05:06:16.019Z,100648.57
2019-05-07T05:08:43.524Z,100654.59
2019-05-07T05:11:09.485Z,100659.06
2019-05-07T05:13:36.226Z,100654.73
2019-05-07T05:16:22.496Z,100668.70
2019-05-07T05:18:49.006Z,100661.24
2019-05-07T05:21:22.770Z,100663.88
2019-05-07T05:23:58.653Z,100660.22
2019-05-07T05:26:25.398Z,100655.34
2019-05-07T05:28:52.610Z,100649.97
2019-05-07T05:31:18.930Z,100650.92
2019-05-07T05:33:45.663Z,100650.08
2019-05-07T05:36:12.779Z,100645.72
2019-05-07T05:38:39.176Z,100646.70
2019-05-07T05:41:05.914Z,100647.39
2019-05-07T05:43:54.746Z,100641.00
2019-05-07T05:46:22.795Z,100643.32
2019-05-07T05:48:49.399Z,100641.82
2019-05-07T05:51:24.070Z,100632.75
2019-05-07T05:53:56.094Z,100635.23
2019-05-07T05:56:27.350Z,100636.84
2019-05-07T05:59:02.819Z,100631.66
2019-05-07T06:01:39.265Z,100634.00
2019-05-07T06:04:17.346Z,100631.90
2019-05-07T06:07:07.906Z,100641.77
2019-05-07T06:09:32.762Z,100646.63
2019-05-07T06:12:18.134Z,100647.44
2019-05-07T06:14:49.048Z,100651.41
2019-05-07T06:17:37.223Z,100647.81
2019-05-07T06:20:15.028Z,100648.56
2019-05-07T06:23:02.221Z,100648.14
2019-05-07T06:25:28.979Z,100642.53
2019-05-07T06:27:55.685Z,100640.28
2019-05-07T06:30:22.842Z,100629.97
2019-05-07T06:32:49.230Z,100627.33
2019-05-07T06:35:16.002Z,100631.65
2019-05-07T06:37:43.000Z,100637.77
2019-05-07T06:40:15.298Z,100641.77
2019-05-07T06:42:52.631Z,100647.45
2019-05-07T06:45:22.821Z,100637.60
2019-05-07T06:47:49.402Z,100631.72
2019-05-07T06:50:16.167Z,100618.23
2019-05-07T06:52:42.910Z,100630.76
2019-05-07T06:55:09.649Z,100630.07
2019-05-07T06:57:36.397Z,100632.70
2019-05-07T07:00:08.144Z,100631.58
2019-05-07T07:02:56.198Z,100632.20
2019-05-07T07:05:28.603Z,100625.29
2019-05-07T07:07:59.078Z,100615.48
2019-05-07T07:10:44.795Z,100612.73
2019-05-07T07:13:12.005Z,100607.23
2019-05-07T07:15:38.270Z,100608.00
2019-05-07T07:18:05.021Z,100601.24
2019-05-07T07:20:32.649Z,100606.84
2019-05-07T07:22:58.485Z,100601.38
2019-05-07T07:25:25.357Z,100603.61
2019-05-07T07:27:52.162Z,100596.09
2019-05-07T07:30:27.266Z,100588.28
2019-05-07T07:32:54.086Z,100589.05
2019-05-07T07:35:22.557Z,100580.47
2019-05-07T07:37:47.727Z,100570.16
2019-05-07T07:40:22.424Z,100575.55
2019-05-07T07:42:47.355Z,100574.66
2019-05-07T07:45:15.710Z,100572.66
2019-05-07T07:47:42.483Z,100568.42
2019-05-07T07:50:09.338Z,100570.94
2019-05-07T07:52:36.066Z,100566.02
2019-05-07T07:55:02.858Z,100575.48
2019-05-07T07:57:35.479Z,100570.38
2019-05-07T08:00:08.921Z,100569.73
2019-05-07T08:02:38.646Z,100561.47
2019-05-07T08:05:05.418Z,100554.38
2019-05-07T08:07:33.099Z,100548.85
2019-05-07T08:09:58.875Z,100543.16
2019-05-07T08:12:25.616Z,100546.03
2019-05-07T08:14:52.330Z,100545.58
2019-05-07T08:17:19.092Z,100532.02
2019-05-07T08:19:45.810Z,100528.50
2019-05-07T08:22:12.570Z,100522.00
2019-05-07T08:24:39.290Z,100523.23
2019-05-07T08:27:06.029Z,100521.27
2019-05-07T08:29:32.845Z,100522.61
2019-05-07T08:32:14.686Z,100518.05
2019-05-07T08:34:47.550Z,100508.88
2019-05-07T08:37:14.347Z,100504.01
2019-05-07T08:39:42.917Z,100506.64
2019-05-07T08:42:08.009Z,100501.81
2019-05-07T08:44:40.273Z,100504.25
2019-05-07T08:47:13.731Z,100499.66
2019-05-07T08:49:43.236Z,100494.59
2019-05-07T08:52:07.401Z,100501.25
2019-05-07T08:54:34.110Z,100501.78
2019-05-07T08:57:01.951Z,100496.16
2019-05-07T08:59:27.741Z,100492.98
2019-05-07T09:01:54.465Z,100490.19
2019-05-07T09:04:22.003Z,100484.77
2019-05-07T09:06:47.961Z,100486.10
2019-05-07T09:09:14.720Z,100467.37
2019-05-07T09:11:42.586Z,100459.92
2019-05-07T09:14:08.222Z,100464.05
2019-05-07T09:16:35.059Z,100438.83
2019-05-07T09:19:02.199Z,100441.98
2019-05-07T09:21:28.580Z,100436.05
2019-05-07T09:23:55.335Z,100430.70
2019-05-07T09:26:25.982Z,100434.94
2019-05-07T09:29:07.976Z,100447.14
2019-05-07T09:31:42.303Z,100452.13
2019-05-07T09:34:09.050Z,100453.09
2019-05-07T09:36:42.468Z,100450.98
2019-05-07T09:39:08.363Z,100443.40
2019-05-07T09:41:35.082Z,100434.38
2019-05-07T09:44:03.134Z,100409.18
2019-05-07T09:46:28.570Z,100417.88
2019-05-07T09:48:55.351Z,100404.65
2019-05-07T09:51:22.666Z,100406.72
2019-05-07T09:53:48.861Z,100402.97
2019-05-07T09:56:15.601Z,100399.87
2019-05-07T09:58:42.695Z,100408.78
2019-05-07T10:01:09.185Z,100407.89
2019-05-07T10:03:35.938Z,100416.46
2019-05-07T10:06:02.753Z,100409.87
2019-05-07T10:08:31.774Z,100423.03
2019-05-07T10:10:56.693Z,100423.11
2019-05-07T10:13:28.469Z,100418.45
2019-05-07T10:15:55.190Z,100417.74
2019-05-07T10:18:22.868Z,100412.28
2019-05-07T10:20:48.674Z,100406.70
2019-05-07T10:23:19.475Z,100398.43
2019-05-07T10:25:48.717Z,100398.48
2019-05-07T10:28:15.498Z,100393.50
2019-05-07T10:30:42.904Z,100381.42
2019-05-07T10:33:09.374Z,100380.46
2019-05-07T10:35:36.147Z,100372.14
2019-05-07T10:38:02.870Z,100373.50
2019-05-07T10:40:29.756Z,100370.20
2019-05-07T10:42:56.526Z,100368.22
2019-05-07T10:45:42.910Z,100371.41
2019-05-07T10:48:14.687Z,100379.03
2019-05-07T10:50:43.026Z,100392.49
2019-05-07T10:53:09.750Z,100393.02
2019-05-07T10:55:36.507Z,100392.73
2019-05-07T10:58:03.246Z,100387.81
2019-05-07T11:00:30.068Z,100379.87
2019-05-07T11:02:56.798Z,100370.66
2019-05-07T11:05:23.551Z,100371.42
2019-05-07T11:07:50.283Z,100368.94
2019-05-07T11:10:17.054Z,100365.23
2019-05-07T11:12:43.790Z,100353.79
2019-05-07T11:15:12.422Z,100350.16
2019-05-07T11:17:49.050Z,100337.46
2019-05-07T11:20:15.894Z,100317.27
2019-05-07T11:22:42.940Z,100312.54
2019-05-07T11:25:09.381Z,100313.62
2019-05-07T11:27:36.112Z,100309.94
2019-05-07T11:30:03.442Z,100292.92
2019-05-07T11:32:32.035Z,100297.25
2019-05-07T11:34:57.035Z,100280.84
2019-05-07T11:37:23.764Z,100298.96
2019-05-07T11:39:52.340Z,100299.16
2019-05-07T11:42:39.931Z,100280.63
2019-05-07T11:45:06.732Z,100270.45
2019-05-07T11:47:33.502Z,100256.36
2019-05-07T11:50:06.165Z,100249.45
2019-05-07T11:52:35.908Z,100232.00
2019-05-07T11:55:03.154Z,100244.23
2019-05-07T11:57:28.310Z,100249.00
2019-05-07T11:59:55.062Z,100249.14
2019-05-07T12:02:22.629Z,100259.05
2019-05-07T12:04:48.643Z,100245.13
2019-05-07T12:07:15.379Z,100241.23
2019-05-07T12:09:42.216Z,100247.20
2019-05-07T12:12:08.954Z,100243.96
2019-05-07T12:14:35.718Z,100242.48
2019-05-07T12:17:02.798Z,100245.33
2019-05-07T12:19:29.190Z,100233.69
2019-05-07T12:21:56.194Z,100239.55
2019-05-07T12:24:22.926Z,100232.45
2019-05-07T12:26:49.701Z,100211.18
2019-05-07T12:29:16.446Z,100221.77
2019-05-07T12:31:55.732Z,100229.20
2019-05-07T12:34:28.274Z,100230.90
2019-05-07T12:36:55.031Z,100228.77
2019-05-07T12:39:22.020Z,100217.34
2019-05-07T12:41:48.482Z,100226.87
2019-05-07T12:44:15.215Z,100225.43
2019-05-07T12:46:42.420Z,100222.53
2019-05-07T12:49:08.711Z,100225.36
2019-05-07T12:51:57.079Z,100216.60
2019-05-07T12:54:36.097Z,100219.55
2019-05-07T12:56:59.465Z,100217.89
2019-05-07T12:59:26.199Z,100209.62
2019-05-07T13:02:15.919Z,100220.09
2019-05-07T13:04:29.087Z,100211.52
2019-05-07T13:07:02.486Z,100203.86
2019-05-07T13:09:28.061Z,100201.25
2019-05-07T13:11:54.794Z,100186.00
2019-05-07T13:14:21.888Z,100190.23
2019-05-07T13:16:48.310Z,100187.62
2019-05-07T13:19:15.046Z,100181.09
2019-05-07T13:21:47.436Z,100181.66
2019-05-07T13:24:08.602Z,100181.94
2019-05-07T13:26:35.353Z,100178.72
2019-05-07T13:29:02.515Z,100185.77
2019-05-07T13:31:28.960Z,100182.23
2019-05-07T13:33:55.784Z,100191.50
2019-05-07T13:36:22.508Z,100172.03
2019-05-07T13:39:08.954Z,100173.77
2019-05-07T13:41:53.775Z,100171.00
2019-05-07T13:44:28.158Z,100176.63
2019-05-07T13:47:14.510Z,100159.34
2019-05-07T13:49:42.775Z,100166.34
2019-05-07T13:52:08.110Z,100150.88
2019-05-07T13:54:34.858Z,100144.14
2019-05-07T13:57:01.590Z,100146.22
2019-05-07T13:59:28.349Z,100139.82
2019-05-07T14:02:05.053Z,100145.70
2019-05-07T14:04:32.521Z,100134.42
2019-05-07T14:07:01.789Z,100136.10
2019-05-07T14:09:26.507Z,100123.12
2019-05-07T14:11:53.250Z,100125.92
2019-05-07T14:14:22.174Z,100110.05
2019-05-07T14:16:46.735Z,100124.20
2019-05-07T14:19:13.506Z,100107.41
2019-05-07T14:21:42.177Z,100111.49
2019-05-07T14:24:07.003Z,100123.77
2019-05-07T14:26:33.722Z,100117.45
2019-05-07T14:29:01.864Z,100106.26
2019-05-07T14:31:27.202Z,100109.18
2019-05-07T14:33:57.754Z,100106.30
2019-05-07T14:36:31.825Z,100109.48
2019-05-07T14:38:56.485Z,100095.30
2019-05-07T14:41:25.685Z,100096.98
2019-05-07T14:43:54.030Z,100104.45
2019-05-07T14:46:20.778Z,100086.63
2019-05-07T14:48:47.490Z,100097.17
2019-05-07T14:51:14.236Z,100081.09
2019-05-07T14:53:41.158Z,100082.78
2019-05-07T14:56:07.991Z,100082.41
2019-05-07T14:58:34.717Z,100084.94
2019-05-07T15:01:02.475Z,100085.97
2019-05-07T15:03:28.217Z,100086.26
2019-05-07T15:05:54.972Z,100069.93
2019-05-07T15:08:22.072Z,100084.30
2019-05-07T15:10:48.766Z,100083.95
2019-05-07T15:13:15.493Z,100082.27
2019-05-07T15:15:42.241Z,100082.00
2019-05-07T15:18:15.742Z,100074.66
2019-05-07T15:20:41.953Z,100070.14
2019-05-07T15:23:13.527Z,100080.22
2019-05-07T15:25:40.292Z,100075.94
2019-05-07T15:28:07.081Z,100073.09
2019-05-07T15:30:42.311Z,100072.84
2019-05-07T15:33:09.406Z,100077.73
2019-05-07T15:35:36.147Z,100064.45
2019-05-07T15:38:02.898Z,100061.25
2019-05-07T15:40:29.614Z,100061.88
2019-05-07T15:42:56.430Z,100053.92
2019-05-07T15:45:23.158Z,100054.17
2019-05-07T15:47:50.974Z,100045.65
2019-05-07T15:50:17.761Z,100047.29
2019-05-07T15:52:58.655Z,100040.55
2019-05-07T15:55:18.998Z,100035.73
2019-05-07T15:57:45.795Z,100039.55
2019-05-07T16:00:13.175Z,100029.23
2019-05-07T16:02:41.478Z,100028.46
2019-05-07T16:05:08.278Z,100041.17
2019-05-07T16:07:35.101Z,100032.94
2019-05-07T16:10:01.872Z,100024.48
2019-05-07T16:12:28.941Z,100022.59
2019-05-07T16:14:55.665Z,100023.27
2019-05-07T16:17:32.463Z,100019.84
2019-05-07T16:19:57.299Z,100005.13
2019-05-07T16:22:27.671Z,100014.18
2019-05-07T16:24:54.546Z,100005.44
2019-05-07T16:27:22.454Z,100004.38
2019-05-07T16:29:48.065Z,100000.82
2019-05-07T16:32:14.806Z,100003.83
2019-05-07T16:34:42.936Z,99994.27
2019-05-07T16:37:08.380Z,99999.20
2019-05-07T16:39:35.189Z,99994.95
2019-05-07T16:42:01.995Z,99992.46
2019-05-07T16:44:28.715Z,99992.98
2019-05-07T16:46:55.542Z,99991.80
2019-05-07T16:49:22.454Z,99994.86
2019-05-07T16:51:49.243Z,99991.73
2019-05-07T16:54:16.062Z,99980.59
2019-05-07T16:56:48.701Z,99978.04
2019-05-07T16:59:15.426Z,99970.78
2019-05-07T17:01:42.873Z,99973.52
2019-05-07T17:04:09.055Z,99971.44
2019-05-07T17:06:35.926Z,99966.84
2019-05-07T17:09:14.009Z,99966.66
2019-05-07T17:11:40.802Z,99965.63
2019-05-07T17:14:07.542Z,99968.97
2019-05-07T17:16:34.325Z,99975.98
2019-05-07T17:19:02.559Z,99973.85
2019-05-07T17:21:27.873Z,99967.78
2019-05-07T17:23:54.662Z,99963.16
2019-05-07T17:26:23.212Z,99970.78
2019-05-07T17:28:48.370Z,99962.96
2019-05-07T17:31:15.190Z,99975.27
2019-05-07T17:33:42.551Z,99976.50
2019-05-07T17:36:08.862Z,99986.13
2019-05-07T17:38:35.628Z,99982.16
2019-05-07T17:41:10.775Z,99979.22
2019-05-07T17:43:29.109Z,99982.56
2019-05-07T17:45:55.915Z,99984.67
2019-05-07T17:48:23.272Z,99992.27
2019-05-07T17:50:56.218Z,99982.16
2019-05-07T17:53:23.019Z,99991.97
2019-05-07T17:55:49.760Z,99991.53
2019-05-07T17:58:16.628Z,99995.98
2019-05-07T18:00:43.378Z,99990.72
2019-05-07T18:03:32.227Z,99993.15
2019-05-07T18:05:56.878Z,99991.10
2019-05-07T18:08:23.738Z,99988.43
2019-05-07T18:10:50.466Z,99994.33
2019-05-07T18:13:17.226Z,100002.34
2019-05-07T18:15:44.046Z,100008.30
2019-05-07T18:18:12.837Z,100006.17
2019-05-07T18:20:37.594Z,100010.41
2019-05-07T18:23:06.895Z,100008.92
2019-05-07T18:25:32.409Z,100015.92
2019-05-07T18:27:58.061Z,100019.09
2019-05-07T18:30:24.906Z,100019.22
2019-05-07T18:32:55.991Z,100009.30
2019-05-07T18:35:23.096Z,100019.16
2019-05-07T18:37:52.577Z,99999.93
2019-05-07T18:40:17.495Z,99997.98
2019-05-07T18:42:44.237Z,100007.30
2019-05-07T18:45:12.437Z,100029.02
2019-05-07T18:47:38.961Z,100032.80
2019-05-07T18:50:05.735Z,100037.45
2019-05-07T18:52:32.529Z,100031.45
2019-05-07T18:54:59.447Z,100033.09
2019-05-07T18:57:26.175Z,100041.22
2019-05-07T18:59:53.745Z,100043.17
2019-05-07T19:02:22.410Z,100044.91
2019-05-07T19:04:47.230Z,100039.60
2019-05-07T19:07:13.988Z,100030.70
2019-05-07T19:09:42.392Z,100041.72
2019-05-07T19:12:07.467Z,100047.14
2019-05-07T19:14:34.230Z,100047.45
2019-05-07T19:17:03.024Z,100046.52
2019-05-07T19:19:27.725Z,100043.92
2019-05-07T19:21:54.471Z,100040.16
2019-05-07T19:24:23.073Z,100042.14
2019-05-07T19:26:47.958Z,100051.09
2019-05-07T19:29:14.684Z,100046.26
2019-05-07T19:31:41.877Z,100053.23
2019-05-07T19:34:08.174Z,100050.66
2019-05-07T19:36:34.945Z,100041.38
2019-05-07T19:39:02.026Z,100042.80
2019-05-07T19:41:28.474Z,100041.33
2019-05-07T19:43:55.198Z,100048.70
2019-05-07T19:46:22.822Z,100041.53
2019-05-07T19:48:48.757Z,100043.00
2019-05-07T19:51:15.514Z,100031.73
2019-05-07T19:53:42.258Z,100026.30
2019-05-07T19:56:14.318Z,100017.23
2019-05-07T19:58:41.930Z,100015.06
2019-05-07T20:01:07.798Z,100013.13
2019-05-07T20:03:34.526Z,100017.34
2019-05-07T20:06:02.417Z,100014.08
2019-05-07T20:08:27.997Z,100010.95
2019-05-07T20:10:58.323Z,100011.61
2019-05-07T20:13:27.309Z,100004.73
2019-05-07T20:15:55.377Z,100001.02
2019-05-07T20:18:22.133Z,99993.85
2019-05-07T20:20:48.869Z,99999.52
2019-05-07T20:23:15.606Z,99988.84
2019-05-07T20:25:42.341Z,99988.80
2019-05-07T20:28:09.071Z,99984.70
2019-05-07T20:30:35.912Z,99985.76
2019-05-07T20:33:03.190Z,99984.14
2019-05-07T20:35:29.802Z,99982.51
2019-05-07T20:37:56.590Z,99984.56
2019-05-07T20:40:23.318Z,99973.48
2019-05-07T20:42:52.360Z,99970.25
2019-05-07T20:45:16.787Z,99971.23
2019-05-07T20:47:43.531Z,99962.13
2019-05-07T20:50:12.551Z,99953.44
2019-05-07T20:52:37.070Z,99953.80
2019-05-07T20:55:08.210Z,99954.12
2019-05-07T20:57:37.670Z,99957.55
2019-05-07T21:00:05.158Z,99956.56
2019-05-07T21:02:44.364Z,99947.42
2019-05-07T21:04:58.643Z,99947.77
2019-05-07T21:07:25.466Z,99935.71
2019-05-07T21:09:53.019Z,99929.51
2019-05-07T21:12:18.951Z,99926.26
2019-05-07T21:14:45.766Z,99925.59
2019-05-07T21:17:12.521Z,99926.90
2019-05-07T21:19:39.248Z,99920.72
2019-05-07T21:22:05.998Z,99916.14
2019-05-07T21:24:33.188Z,99910.44
2019-05-07T21:26:59.488Z,99915.96
2019-05-07T21:29:26.209Z,99915.61
2019-05-07T21:31:52.982Z,99923.63
2019-05-07T21:34:19.715Z,99930.08
2019-05-07T21:36:46.482Z,99938.47
2019-05-07T21:39:13.341Z,99933.20
2019-05-07T21:41:39.930Z,99935.67
2019-05-07T21:44:06.662Z,99926.49
2019-05-07T21:46:33.409Z,99929.67
2019-05-07T21:49:02.417Z,99925.77
2019-05-07T21:51:26.890Z,99925.45
2019-05-07T21:54:15.118Z,99919.80
2019-05-07T21:56:52.201Z,99918.45
2019-05-07T21:59:19.286Z,99906.78
2019-05-07T22:01:48.593Z,99911.06
2019-05-07T22:04:15.342Z,99912.05
2019-05-07T22:06:45.124Z,99904.73
2019-05-07T22:09:08.806Z,99898.84
2019-05-07T22:11:35.550Z,99902.13
2019-05-07T22:14:02.374Z,99893.93
2019-05-07T22:16:29.034Z,99888.09
2019-05-07T22:18:55.790Z,99891.66
2019-05-07T22:21:22.513Z,99884.17
2019-05-07T22:23:49.257Z,99887.63
2019-05-07T22:26:22.277Z,99889.50
2019-05-07T22:28:42.793Z,99888.61
2019-05-07T22:31:31.030Z,99876.03
2019-05-07T22:34:03.175Z,99866.44
2019-05-07T22:36:29.905Z,99874.38
2019-05-07T22:38:56.666Z,99871.69
2019-05-07T22:41:23.417Z,99862.39
2019-05-07T22:43:50.200Z,99849.50
2019-05-07T22:46:16.938Z,99850.92
2019-05-07T22:48:43.684Z,99846.56
2019-05-07T22:51:12.181Z,99840.92
2019-05-07T22:53:37.242Z,99836.28
2019-05-07T22:56:03.967Z,99833.50
2019-05-07T22:58:34.872Z,99831.00
2019-05-07T23:01:06.194Z,99828.56
2019-05-07T23:03:32.944Z,99827.62
2019-05-07T23:06:05.559Z,99822.12
2019-05-07T23:08:32.870Z,99825.45
2019-05-07T23:10:59.341Z,99829.97
2019-05-07T23:13:26.092Z,99822.72
2019-05-07T23:15:53.875Z,99824.45
2019-05-07T23:18:19.571Z,99818.27
2019-05-07T23:20:46.479Z,99819.83
2019-05-07T23:23:14.235Z,99814.45
2019-05-07T23:25:40.119Z,99814.52
2019-05-07T23:28:06.840Z,99811.45
2019-05-07T23:30:33.582Z,99812.38
2019-05-07T23:33:02.401Z,99801.38
2019-05-07T23:35:27.342Z,99801.38
2019-05-07T23:37:54.054Z,99788.63
2019-05-07T23:40:26.381Z,99789.23
2019-05-07T23:42:53.128Z,99786.44
2019-05-07T23:45:22.002Z,99785.85
2019-05-07T23:47:46.606Z,99782.11
2019-05-07T23:50:13.337Z,99779.33
2019-05-07T23:52:44.009Z,99779.30
2019-05-07T23:55:06.821Z,99777.18
2019-05-07T23:57:33.545Z,99768.05
